Tuesday, July 25, 2017, 2:34 AM EDT

KOFP, Hanover County Municipal

Location: Ashland, VA, United States Lat: 37.7
Local Time: 2:34 AM EDT ( 6:34 GMT) Lon: -77.433
Time Zone: US/Eastern Elev: 203 ft

Show me the last for .
Show Decoded

2017-07-25 01:54 METAR KOFP 250554Z AUTO 00000KT 9SM CLR 23/21 A2994 RMK AO2 SLP137 T02330206
                 10289 20233 53018 =
2017-07-25 00:54 METAR KOFP 250454Z AUTO 00000KT 10SM CLR 24/21 A2992 RMK AO2 SLP130 T02390206
                 403330228 =
2017-07-24 23:54 METAR KOFP 250354Z AUTO 24003KT 10SM CLR 27/20 A2990 RMK AO2 SLP123 T02670200 =
2017-07-24 22:54 METAR KOFP 250254Z AUTO 00000KT 8SM CLR 24/21 A2989 RMK AO2 SLP119 T02440211
                 51012 =
2017-07-24 21:54 METAR KOFP 250154Z AUTO 00000KT 8SM SCT110 25/21 A2989 RMK AO2 SLP118 T02500211
                 =
2017-07-24 20:54 METAR KOFP 250054Z AUTO 00000KT 10SM CLR 26/22 A2987 RMK AO2 SLP111 T02560217 =
2017-07-24 19:54 METAR KOFP 242354Z AUTO 00000KT 9SM CLR 28/22 A2985 RMK AO2 SLP106 T02830222
                 10333 20283 53003 =
2017-07-24 18:54 METAR KOFP 242254Z AUTO 22005KT 10SM CLR 32/19 A2984 RMK AO2 SLP103 T03220194 =
2017-07-24 17:54 METAR KOFP 242154Z AUTO 23006KT 10SM CLR 33/19 A2984 RMK AO2 SLP101 T03280189 =
2017-07-24 16:54 METAR KOFP 242054Z AUTO 21007KT 10SM CLR 33/18 A2984 RMK AO2 SLP103 T03280183
                 58004 =
2017-07-24 15:54 METAR KOFP 241954Z AUTO VRB06KT 10SM FEW050 33/19 A2985 RMK AO2 SLP106 T03330189
                 =
2017-07-24 14:54 METAR KOFP 241854Z AUTO VRB03KT 10SM CLR 32/20 A2986 RMK AO2 SLP108 T03170200 =
2017-07-24 13:54 METAR KOFP 241754Z AUTO VRB04KT 10SM CLR 31/21 A2986 RMK AO2 SLP107 T03110211
                 10311 20228 58002 =
2017-07-24 12:54 METAR KOFP 241654Z AUTO 00000KT 10SM CLR 31/21 A2986 RMK AO2 SLP109 T03060211 =
2017-07-24 11:54 METAR KOFP 241554Z AUTO 28004KT 10SM FEW030 29/21 A2986 RMK AO2 SLP109 T02940211
                 =
2017-07-24 10:54 METAR KOFP 241454Z AUTO 22004KT 10SM CLR 28/21 A2986 RMK AO2 SLP109 T02780211
                 51011 =
2017-07-24 09:54 METAR KOFP 241354Z AUTO 24009KT 10SM CLR 26/21 A2986 RMK AO2 SLP107 T02560211 =
2017-07-24 08:54 METAR KOFP 241254Z AUTO 23006KT 10SM CLR 24/21 A2985 RMK AO2 SLP104 T02390206 =
2017-07-24 07:54 METAR KOFP 241154Z AUTO 21006KT 9SM SCT120 23/20 A2983 RMK AO2 RAB21E52 SLP099
                 P0000 60000 70101 T02280200 10233 20228 53016 =
2017-07-24 06:54 METAR KOFP 241054Z AUTO 21005KT 10SM CLR 23/21 A2982 RMK AO2 SLP094 T02280206 =
2017-07-24 05:54 METAR KOFP 240954Z AUTO 18007KT 10SM CLR 23/20 A2979 RMK AO2 SLP084 T02280200 =
2017-07-24 04:54 METAR KOFP 240854Z AUTO 19006KT 10SM CLR 23/21 A2978 RMK AO2 SLP083 60000
                 T02330206 58004 =
2017-07-24 03:54 METAR KOFP 240754Z AUTO 23008KT 9SM CLR 23/21 A2980 RMK AO2 SLP086 T02330206 =
2017-07-24 02:54 METAR KOFP 240654Z AUTO 21006KT 8SM FEW070 SCT080 SCT100 23/21 A2979 RMK AO2
                 RAE10 SLP086 P0000 T02330211 =

Support USWX by starting your Amazon purchase here.